Sam Sing — PH2979 — position and weather

sailwx.info

Track history (hours):
 
Tides and Currents Weather Stations Pressure Air Temp Water Temp Dewpoint Dewpoint Depression Visibility Wind Speed Wind Dir Waves Ship Positions

Sam Sing

Last reported at 2014-Sep-23 11:03 UTC. Time now 2014-Dec-19 13:42 UTC.
Position N 37°36' E 023°42'.
Warning: this ship's position is months out of date.

Length 13 m.

Type: Sailing vessel. MMSI: 244020860.

Date/timePositionNaut miles runAvg speedWind from/ knotsBaromVisibWave heightAir tempDewpointWater temp
2014-Sep-23 11:03N 37°36' E 023°42'  
2014-Sep-15 11:30N 37°30' E 025°10'6 6.1
2014-Sep-15 10:33N 37°24' E 025°10'6 5.7
2014-Sep-15 09:32N 37°19' E 025°12'6 5.7
2014-Sep-15 08:33N 37°14' E 025°15'6 6.1
2014-Sep-15 07:33N 37°08' E 025°18'5 5.3
2014-Sep-15 06:33N 37°03' E 025°17'2 0.0
2014-Sep-13 13:27N 37°02' E 025°16'3 3.4
2014-Sep-13 12:33N 36°59' E 025°15'5 5.0
2014-Sep-13 11:33N 36°55' E 025°11'  
Track history (hours):
 
Tides and Currents Weather Stations Pressure Air Temp Water Temp Dewpoint Dewpoint Depression Visibility Wind Speed Wind Dir Waves Ship Positions

Sam Sing

Last reported at 2014-Sep-23 11:03 UTC. Time now 2014-Dec-19 13:42 UTC.
Position N 37°36' E 023°42'.
Warning: this ship's position is months out of date.

Length 13 m.

Type: Sailing vessel. MMSI: 244020860.

Date/timePositionNaut miles runAvg speedWind from/ knotsBaromVisibWave heightAir tempDewpointWater temp
2014-Sep-23 11:03N 37°36' E 023°42'  
2014-Sep-15 11:30N 37°30' E 025°10'6 6.1
2014-Sep-15 10:33N 37°24' E 025°10'6 5.7
2014-Sep-15 09:32N 37°19' E 025°12'6 5.7
2014-Sep-15 08:33N 37°14' E 025°15'6 6.1
2014-Sep-15 07:33N 37°08' E 025°18'5 5.3
2014-Sep-15 06:33N 37°03' E 025°17'2 0.0
2014-Sep-13 13:27N 37°02' E 025°16'3 3.4
2014-Sep-13 12:33N 36°59' E 025°15'5 5.0
2014-Sep-13 11:33N 36°55' E 025°11'  

Dump ship's entire track history